Time,TemperatureF,DewpointF,PressureIn,WindDirection,WindDirectionDegrees,WindSpeedMPH,WindSpeedGustMPH,Humidity,HourlyPrecipIn,Conditions,Clouds,dailyrainin,SoftwareType,DateUTC
2013-01-12 00:00:00,46.2,46.2,30.10,SSE,163,0.0,51.0,100,6.57,,,0.00,VWS V13.01,2013-01-12 05:00:00,
2013-01-12 01:00:00,46.7,46.7,30.09,SSE,163,0.0,51.0,100,6.57,,,0.00,VWS V13.01,2013-01-12 06:00:00,
2013-01-12 01:05:00,46.8,46.8,30.09,SSE,163,0.0,51.0,100,6.57,,,0.00,VWS V13.01,2013-01-12 06:05:00,
2013-01-12 01:10:00,46.9,46.9,30.09,SSE,163,0.0,51.0,100,6.57,,,0.00,VWS V13.01,2013-01-12 06:10:00,
2013-01-12 01:15:00,46.9,46.9,30.09,SSE,163,0.0,51.0,100,6.57,,,0.00,VWS V13.01,2013-01-12 06:15:00,
2013-01-12 01:20:00,46.8,46.8,30.09,SSE,163,0.0,51.0,100,6.57,,,0.00,VWS V13.01,2013-01-12 06:20:00,
2013-01-12 01:25:00,46.8,46.8,30.09,SSE,163,0.0,51.0,100,6.57,,,0.00,VWS V13.01,2013-01-12 06:25:00,
2013-01-12 01:30:00,46.8,46.8,30.09,SSE,163,0.0,51.0,100,6.57,,,0.00,VWS V13.01,2013-01-12 06:30:00,
2013-01-12 01:35:00,46.9,46.9,30.09,SSE,163,0.0,51.0,100,6.57,,,0.00,VWS V13.01,2013-01-12 06:35:00,
2013-01-12 01:40:00,46.8,46.8,30.09,SSE,163,0.0,51.0,100,6.57,,,0.00,VWS V13.01,2013-01-12 06:40:00,
2013-01-12 01:45:00,46.8,46.8,30.09,SSE,163,0.0,51.0,100,6.57,,,0.00,VWS V13.01,2013-01-12 06:45:00,
2013-01-12 01:50:00,46.9,46.9,30.09,SSE,163,0.0,51.0,100,6.57,,,0.00,VWS V13.01,2013-01-12 06:50:00,
2013-01-12 01:55:00,46.9,46.9,30.09,SSE,163,0.0,51.0,100,6.57,,,0.00,VWS V13.01,2013-01-12 06:55:00,
2013-01-12 02:00:00,46.7,46.7,30.10,SSE,163,0.0,51.0,100,6.57,,,0.00,VWS V13.01,2013-01-12 07:00:00,
2013-01-12 02:05:00,46.7,46.7,30.09,SSE,163,0.0,51.0,100,6.57,,,0.00,VWS V13.01,2013-01-12 07:05:00,
2013-01-12 02:10:00,46.9,46.9,30.10,North,350,0.0,51.0,100,6.57,,,0.00,VWS V13.01,2013-01-12 07:10:00,
2013-01-12 02:15:00,46.9,46.9,30.10,NNE,13,0.0,51.0,100,6.57,,,0.00,VWS V13.01,2013-01-12 07:15:00,
2013-01-12 02:20:00,46.9,46.9,30.10,NNW,336,2.1,51.0,100,6.57,,,0.00,VWS V13.01,2013-01-12 07:20:00,
2013-01-12 02:25:00,46.8,46.8,30.10,NW,326,1.9,51.0,100,6.57,,,0.00,VWS V13.01,2013-01-12 07:25:00,
2013-01-12 02:30:00,46.7,46.7,30.10,NW,326,0.0,51.0,100,6.57,,,0.00,VWS V13.01,2013-01-12 07:30:00,
2013-01-12 02:35:00,46.8,46.8,30.10,North,350,0.0,51.0,100,6.57,,,0.00,VWS V13.01,2013-01-12 07:35:00,
2013-01-12 02:40:00,46.6,46.6,30.10,North,350,0.0,51.0,100,6.57,,,0.00,VWS V13.01,2013-01-12 07:40:00,
2013-01-12 02:45:00,46.7,46.7,30.10,North,353,0.0,51.0,100,6.57,,,0.00,VWS V13.01,2013-01-12 07:45:00,
2013-01-12 02:50:00,46.3,46.3,30.10,North,350,0.0,51.0,100,6.57,,,0.00,VWS V13.01,2013-01-12 07:50:00,
2013-01-12 02:55:00,46.6,46.6,30.10,North,350,0.0,51.0,100,6.57,,,0.00,VWS V13.01,2013-01-12 07:55:00,
2013-01-12 03:00:00,46.5,46.5,30.10,NNE,22,0.0,51.0,100,6.57,,,0.00,VWS V13.01,2013-01-12 08:00:00,
2013-01-12 03:05:00,46.5,46.5,30.10,North,10,0.0,51.0,100,6.57,,,0.00,VWS V13.01,2013-01-12 08:05:00,
2013-01-12 03:10:00,46.5,46.5,30.10,North,4,0.7,51.0,100,6.57,,,0.00,VWS V13.01,2013-01-12 08:10:00,
2013-01-12 03:15:00,46.3,46.3,30.10,North,357,3.6,51.0,100,6.57,,,0.00,VWS V13.01,2013-01-12 08:15:00,
2013-01-12 03:20:00,46.0,46.0,30.10,North,357,2.4,51.0,100,6.57,,,0.00,VWS V13.01,2013-01-12 08:20:00,
2013-01-12 03:25:00,46.0,46.0,30.10,NNE,28,2.4,51.0,100,6.57,,,0.00,VWS V13.01,2013-01-12 08:25:00,
2013-01-12 03:30:00,45.8,45.8,30.10,North,6,0.0,51.0,100,6.57,,,0.00,VWS V13.01,2013-01-12 08:30:00,
2013-01-12 03:35:00,45.6,45.6,30.10,North,359,0.0,51.0,100,6.57,,,0.00,VWS V13.01,2013-01-12 08:35:00,
2013-01-12 03:40:00,45.6,45.6,30.09,North,8,0.0,51.0,100,6.57,,,0.00,VWS V13.01,2013-01-12 08:40:00,
2013-01-12 03:45:00,45.3,45.3,30.09,NNW,338,1.8,51.0,100,6.57,,,0.00,VWS V13.01,2013-01-12 08:45:00,
2013-01-12 03:50:00,45.3,45.3,30.10,North,7,0.0,51.0,100,6.57,,,0.00,VWS V13.01,2013-01-12 08:50:00,
2013-01-12 03:55:00,45.3,45.3,30.09,NNW,345,3.2,51.0,100,6.57,,,0.00,VWS V13.01,2013-01-12 08:55:00,
2013-01-12 04:00:00,45.3,45.3,30.09,North,8,0.7,51.0,100,6.57,,,0.00,VWS V13.01,2013-01-12 09:00:00,
2013-01-12 04:05:00,45.0,45.0,30.09,NNW,347,0.0,51.0,100,6.57,,,0.00,VWS V13.01,2013-01-12 09:05:00,
2013-01-12 04:10:00,45.0,45.0,30.09,NNW,345,3.1,51.0,100,6.57,,,0.00,VWS V13.01,2013-01-12 09:10:00,
2013-01-12 04:15:00,44.9,44.9,30.09,NNE,13,3.2,51.0,100,6.57,,,0.00,VWS V13.01,2013-01-12 09:15:00,
2013-01-12 04:20:00,44.8,44.8,30.09,North,354,2.3,51.0,100,6.57,,,0.00,VWS V13.01,2013-01-12 09:20:00,
2013-01-12 04:25:00,44.6,44.6,30.09,North,354,2.9,51.0,100,6.57,,,0.00,VWS V13.01,2013-01-12 09:25:00,
2013-01-12 04:30:00,44.6,44.6,30.09,NNE,27,0.0,51.0,100,6.57,,,0.00,VWS V13.01,2013-01-12 09:30:00,
2013-01-12 04:34:00,44.6,44.6,30.09,NNW,343,1.2,51.0,100,6.57,,,0.00,VWS V13.01,2013-01-12 09:34:00,
2013-01-12 04:39:00,44.5,44.5,30.09,North,356,0.0,51.0,100,6.57,,,0.00,VWS V13.01,2013-01-12 09:39:00,
2013-01-12 04:44:00,44.6,44.6,30.09,North,7,2.9,51.0,100,6.57,,,0.00,VWS V13.01,2013-01-12 09:44:00,
2013-01-12 04:49:00,44.5,44.5,30.10,North,10,1.4,51.0,100,6.57,,,0.00,VWS V13.01,2013-01-12 09:49:00,
2013-01-12 04:54:00,44.6,44.6,30.10,NNW,335,4.2,51.0,100,6.57,,,0.00,VWS V13.01,2013-01-12 09:54:00,
2013-01-12 04:59:00,44.8,44.8,30.09,North,354,0.0,51.0,100,6.57,,,0.00,VWS V13.01,2013-01-12 09:59:00,
2013-01-12 05:04:00,44.5,44.5,30.10,NNE,14,2.9,51.0,100,6.57,,,0.00,VWS V13.01,2013-01-12 10:04:00,
2013-01-12 05:09:00,44.7,44.7,30.10,NNW,336,0.0,51.0,100,6.57,,,0.00,VWS V13.01,2013-01-12 10:09:00,
2013-01-12 05:14:00,44.5,44.5,30.10,North,3,2.1,51.0,100,6.57,,,0.00,VWS V13.01,2013-01-12 10:14:00,
2013-01-12 05:19:00,44.5,44.5,30.10,NE,35,2.5,51.0,100,6.57,,,0.00,VWS V13.01,2013-01-12 10:19:00,
2013-01-12 05:24:00,44.7,44.7,30.10,North,7,2.1,51.0,100,6.57,,,0.00,VWS V13.01,2013-01-12 10:24:00,
2013-01-12 05:29:00,44.9,44.9,30.10,NE,55,1.9,51.0,100,6.57,,,0.00,VWS V13.01,2013-01-12 10:29:00,
2013-01-12 05:34:00,44.8,44.8,30.10,NNE,28,2.2,51.0,100,6.57,,,0.00,VWS V13.01,2013-01-12 10:34:00,
2013-01-12 05:39:00,44.8,44.8,30.11,NW,308,1.6,51.0,100,6.57,,,0.00,VWS V13.01,2013-01-12 10:39:00,
2013-01-12 05:44:00,44.7,44.7,30.11,North,349,1.8,51.0,100,6.57,,,0.00,VWS V13.01,2013-01-12 10:44:00,
2013-01-12 05:49:00,44.7,44.7,30.10,North,11,0.0,51.0,100,6.57,,,0.00,VWS V13.01,2013-01-12 10:49:00,
2013-01-12 05:54:00,44.9,44.9,30.10,NE,35,0.0,51.0,100,6.57,,,0.00,VWS V13.01,2013-01-12 10:54:00,
2013-01-12 05:59:00,44.7,44.7,30.11,NNW,342,2.6,51.0,100,6.57,,,0.00,VWS V13.01,2013-01-12 10:59:00,
2013-01-12 06:04:00,44.7,44.7,30.11,North,1,4.5,51.0,100,6.57,,,0.00,VWS V13.01,2013-01-12 11:04:00,
2013-01-12 06:09:00,44.6,44.6,30.12,North,357,2.8,51.0,100,6.57,,,0.00,VWS V13.01,2013-01-12 11:09:00,
2013-01-12 06:14:00,44.7,44.7,30.13,North,352,2.5,51.0,100,6.57,,,0.00,VWS V13.01,2013-01-12 11:14:00,
2013-01-12 06:19:00,44.8,44.8,30.12,NNE,17,0.0,51.0,100,6.57,,,0.00,VWS V13.01,2013-01-12 11:19:00,
2013-01-12 06:24:00,44.6,44.6,30.11,North,357,0.0,51.0,100,6.57,,,0.00,VWS V13.01,2013-01-12 11:24:00,
2013-01-12 06:29:00,44.9,44.9,30.12,North,353,0.0,51.0,100,6.57,,,0.00,VWS V13.01,2013-01-12 11:29:00,
2013-01-12 06:34:00,44.6,44.6,30.12,North,359,5.3,51.0,100,6.57,,,0.00,VWS V13.01,2013-01-12 11:34:00,
2013-01-12 06:39:00,44.6,44.6,30.13,NNE,22,3.3,51.0,100,6.57,,,0.00,VWS V13.01,2013-01-12 11:39:00,
2013-01-12 06:44:00,44.7,44.7,30.13,North,7,1.2,51.0,100,6.57,,,0.00,VWS V13.01,2013-01-12 11:44:00,
2013-01-12 06:49:00,44.5,44.5,30.13,North,354,3.5,51.0,100,6.57,,,0.00,VWS V13.01,2013-01-12 11:49:00,
2013-01-12 06:54:00,44.6,44.6,30.13,NE,49,0.0,51.0,100,6.57,,,0.00,VWS V13.01,2013-01-12 11:54:00,
2013-01-12 06:59:00,44.5,44.5,30.13,NNE,18,0.0,51.0,100,6.57,,,0.00,VWS V13.01,2013-01-12 11:59:00,
2013-01-12 07:04:00,44.5,44.5,30.14,North,6,5.4,51.0,100,6.57,,,0.00,VWS V13.01,2013-01-12 12:04:00,
2013-01-12 07:09:00,44.7,44.7,30.14,North,349,0.0,51.0,100,6.57,,,0.00,VWS V13.01,2013-01-12 12:09:00,
2013-01-12 07:14:00,44.8,44.8,30.13,North,352,0.0,51.0,100,6.57,,,0.00,VWS V13.01,2013-01-12 12:14:00,
2013-01-12 07:19:00,44.8,44.8,30.14,NNW,339,0.0,51.0,100,6.57,,,0.00,VWS V13.01,2013-01-12 12:19:00,
2013-01-12 07:24:00,44.5,44.5,30.14,NNW,339,0.0,51.0,100,6.57,,,0.00,VWS V13.01,2013-01-12 12:24:00,
2013-01-12 07:29:00,44.6,44.6,30.14,North,1,0.0,51.0,100,6.57,,,0.00,VWS V13.01,2013-01-12 12:29:00,
2013-01-12 07:34:00,44.8,44.8,30.14,North,1,0.0,51.0,100,6.57,,,0.00,VWS V13.01,2013-01-12 12:34:00,
2013-01-12 07:39:00,44.8,44.8,30.14,North,10,0.0,51.0,100,6.57,,,0.00,VWS V13.01,2013-01-12 12:39:00,
2013-01-12 07:44:00,44.8,44.8,30.14,NNE,20,0.0,51.0,100,6.57,,,0.00,VWS V13.01,2013-01-12 12:44:00,
2013-01-12 07:49:00,44.8,44.8,30.15,North,10,0.4,51.0,100,6.57,,,0.00,VWS V13.01,2013-01-12 12:49:00,
2013-01-12 07:54:00,45.0,45.0,30.15,North,1,0.0,51.0,100,6.57,,,0.00,VWS V13.01,2013-01-12 12:54:00,
2013-01-12 07:59:00,45.0,45.0,30.16,WNW,301,0.8,51.0,100,6.57,,,0.00,VWS V13.01,2013-01-12 12:59:00,
2013-01-12 08:04:00,44.9,44.9,30.16,NNW,345,0.0,51.0,100,6.57,,,0.00,VWS V13.01,2013-01-12 13:04:00,
2013-01-12 08:09:00,45.0,45.0,30.16,NNW,345,0.0,51.0,100,6.57,,,0.00,VWS V13.01,2013-01-12 13:09:00,
2013-01-12 08:14:00,45.0,45.0,30.17,NNW,347,0.0,51.0,100,6.57,,,0.00,VWS V13.01,2013-01-12 13:14:00,
2013-01-12 08:19:00,45.1,45.1,30.17,NNW,335,1.6,51.0,100,6.57,,,0.00,VWS V13.01,2013-01-12 13:19:00,
2013-01-12 08:24:00,45.0,45.0,30.17,North,352,0.0,51.0,100,6.57,,,0.00,VWS V13.01,2013-01-12 13:24:00,
2013-01-12 08:29:00,45.1,45.1,30.17,NNW,339,0.7,51.0,100,6.57,,,0.00,VWS V13.01,2013-01-12 13:29:00,
2013-01-12 08:34:00,45.2,45.2,30.17,NNW,335,0.0,51.0,100,6.57,,,0.00,VWS V13.01,2013-01-12 13:34:00,
2013-01-12 08:39:00,45.1,45.1,30.16,NNW,335,0.0,51.0,100,6.57,,,0.00,VWS V13.01,2013-01-12 13:39:00,
2013-01-12 08:44:00,45.3,45.3,30.16,NNW,335,0.0,51.0,100,6.57,,,0.00,VWS V13.01,2013-01-12 13:44:00,
2013-01-12 08:49:00,45.6,45.6,30.17,NNW,335,0.0,51.0,100,6.57,,,0.00,VWS V13.01,2013-01-12 13:49:00,
2013-01-12 08:54:00,45.4,45.4,30.16,NNW,335,0.0,51.0,100,6.57,,,0.00,VWS V13.01,2013-01-12 13:54:00,
2013-01-12 08:59:00,45.4,45.4,30.16,North,357,0.4,51.0,100,6.57,,,0.00,VWS V13.01,2013-01-12 13:59:00,
2013-01-12 09:04:00,45.6,45.6,30.16,North,10,3.0,51.0,100,6.57,,,0.00,VWS V13.01,2013-01-12 14:04:00,
2013-01-12 09:09:00,45.6,45.6,30.17,NNE,25,0.0,51.0,100,6.57,,,0.00,VWS V13.01,2013-01-12 14:09:00,
2013-01-12 09:14:00,45.6,45.6,30.17,NNE,25,0.0,51.0,100,6.57,,,0.00,VWS V13.01,2013-01-12 14:14:00,
2013-01-12 09:19:00,45.7,45.7,30.17,NNE,25,0.0,51.0,100,6.57,,,0.00,VWS V13.01,2013-01-12 14:19:00,
2013-01-12 09:24:00,45.8,45.8,30.17,NNE,13,0.0,51.0,100,6.57,,,0.00,VWS V13.01,2013-01-12 14:24:00,
2013-01-12 09:29:00,45.7,45.7,30.17,NNE,13,0.0,51.0,100,6.57,,,0.00,VWS V13.01,2013-01-12 14:29:00,
2013-01-12 09:34:00,45.8,45.8,30.17,NNE,13,0.0,51.0,100,6.57,,,0.00,VWS V13.01,2013-01-12 14:34:00,
2013-01-12 09:39:00,46.1,46.1,30.17,NNE,13,0.0,51.0,100,6.57,,,0.00,VWS V13.01,2013-01-12 14:39:00,
2013-01-12 09:44:00,46.1,46.1,30.17,NNE,13,0.0,51.0,100,6.57,,,0.00,VWS V13.01,2013-01-12 14:44:00,
2013-01-12 09:49:00,46.0,46.0,30.17,NNW,342,0.0,51.0,100,6.57,,,0.00,VWS V13.01,2013-01-12 14:49:00,
2013-01-12 09:54:00,46.0,46.0,30.17,North,4,2.5,51.0,100,6.57,,,0.00,VWS V13.01,2013-01-12 14:54:00,
2013-01-12 09:59:00,45.9,45.9,30.17,NNE,24,1.7,51.0,100,6.57,,,0.00,VWS V13.01,2013-01-12 14:59:00,
2013-01-12 10:04:00,46.0,46.0,30.18,North,350,0.0,51.0,100,6.57,,,0.00,VWS V13.01,2013-01-12 15:04:00,
2013-01-12 10:09:00,46.0,46.0,30.18,North,6,0.3,51.0,100,6.57,,,0.00,VWS V13.01,2013-01-12 15:09:00,
2013-01-12 10:14:00,46.2,46.2,30.18,NNW,338,0.0,51.0,100,6.57,,,0.00,VWS V13.01,2013-01-12 15:14:00,
2013-01-12 10:19:00,46.0,46.0,30.18,NNE,14,0.0,51.0,100,6.57,,,0.00,VWS V13.01,2013-01-12 15:19:00,
2013-01-12 10:24:00,46.1,46.1,30.18,NNE,21,0.0,51.0,100,6.57,,,0.00,VWS V13.01,2013-01-12 15:24:00,
2013-01-12 10:29:00,46.0,46.0,30.18,NNW,347,3.4,51.0,100,6.57,,,0.00,VWS V13.01,2013-01-12 15:29:00,
2013-01-12 10:34:00,45.7,45.7,30.18,North,357,0.0,51.0,100,6.57,,,0.00,VWS V13.01,2013-01-12 15:34:00,
2013-01-12 10:39:00,46.0,46.0,30.18,NNE,25,2.8,51.0,100,6.57,,,0.00,VWS V13.01,2013-01-12 15:39:00,
2013-01-12 10:44:00,46.1,46.1,30.18,North,357,0.0,51.0,100,6.57,,,0.00,VWS V13.01,2013-01-12 15:44:00,
2013-01-12 10:49:00,45.9,45.9,30.18,NE,42,1.5,51.0,100,6.57,,,0.00,VWS V13.01,2013-01-12 15:49:00,
2013-01-12 10:54:00,45.8,45.8,30.17,NNE,32,0.6,51.0,100,6.57,,,0.00,VWS V13.01,2013-01-12 15:54:00,
2013-01-12 10:59:00,46.2,46.2,30.17,NNE,24,3.0,51.0,100,6.57,,,0.00,VWS V13.01,2013-01-12 15:59:00,
2013-01-12 11:04:00,46.2,46.2,30.17,North,11,0.0,51.0,100,6.57,,,0.00,VWS V13.01,2013-01-12 16:04:00,
2013-01-12 11:09:00,46.0,46.0,30.17,NNE,17,0.0,51.0,100,6.57,,,0.00,VWS V13.01,2013-01-12 16:09:00,
2013-01-12 11:14:00,46.0,46.0,30.17,NNW,335,0.0,51.0,100,6.57,,,0.00,VWS V13.01,2013-01-12 16:14:00,
2013-01-12 11:19:00,46.2,46.2,30.16,NE,52,0.0,51.0,100,6.57,,,0.00,VWS V13.01,2013-01-12 16:19:00,
2013-01-12 11:24:00,46.3,46.3,30.16,NNE,15,0.7,51.0,100,6.57,,,0.00,VWS V13.01,2013-01-12 16:24:00,
2013-01-12 11:29:00,46.2,46.2,30.16,NE,38,1.3,51.0,100,6.57,,,0.00,VWS V13.01,2013-01-12 16:29:00,
2013-01-12 11:34:00,46.5,46.5,30.16,NNE,32,0.0,51.0,100,6.57,,,0.00,VWS V13.01,2013-01-12 16:34:00,
2013-01-12 11:39:00,46.4,46.4,30.16,NNE,31,0.0,51.0,100,6.57,,,0.00,VWS V13.01,2013-01-12 16:39:00,
2013-01-12 11:44:00,46.7,46.7,30.16,NE,49,0.0,51.0,100,6.57,,,0.00,VWS V13.01,2013-01-12 16:44:00,
2013-01-12 11:49:00,46.7,46.7,30.16,North,8,0.0,51.0,100,6.57,,,0.00,VWS V13.01,2013-01-12 16:49:00,
2013-01-12 11:54:00,46.6,46.6,30.16,North,357,0.0,51.0,100,6.57,,,0.00,VWS V13.01,2013-01-12 16:54:00,
2013-01-12 11:59:00,46.7,46.7,30.16,NNW,332,0.0,51.0,100,6.57,,,0.00,VWS V13.01,2013-01-12 16:59:00,
2013-01-12 12:04:00,46.6,46.6,30.15,ENE,58,0.0,51.0,100,6.57,,,0.00,VWS V13.01,2013-01-12 17:04:00,
2013-01-12 12:09:00,46.7,46.7,30.15,ENE,58,0.0,51.0,100,6.57,,,0.00,VWS V13.01,2013-01-12 17:09:00,
2013-01-12 12:14:00,46.9,46.9,30.15,NE,53,0.0,51.0,100,6.57,,,0.00,VWS V13.01,2013-01-12 17:14:00,
2013-01-12 12:19:00,47.1,47.1,30.15,NE,53,0.0,51.0,100,6.57,,,0.00,VWS V13.01,2013-01-12 17:19:00,
2013-01-12 12:24:00,47.2,47.2,30.15,NE,53,0.0,51.0,100,6.57,,,0.00,VWS V13.01,2013-01-12 17:24:00,
2013-01-12 12:29:00,47.2,47.2,30.16,NNE,32,0.0,51.0,100,6.57,,,0.00,VWS V13.01,2013-01-12 17:29:00,
2013-01-12 12:33:00,47.1,47.1,30.16,NNE,32,0.0,51.0,100,6.57,,,0.00,VWS V13.01,2013-01-12 17:33:00,
2013-01-12 12:38:00,47.1,47.1,30.16,North,11,0.0,51.0,100,6.57,,,0.00,VWS V13.01,2013-01-12 17:38:00,
2013-01-12 12:43:00,47.1,47.1,30.16,North,352,0.0,51.0,100,6.57,,,0.00,VWS V13.01,2013-01-12 17:43:00,
2013-01-12 12:48:00,47.1,47.1,30.16,North,352,0.0,51.0,100,6.57,,,0.00,VWS V13.01,2013-01-12 17:48:00,
2013-01-12 12:53:00,47.0,47.0,30.16,NNE,14,0.0,51.0,100,6.57,,,0.00,VWS V13.01,2013-01-12 17:53:00,
2013-01-12 12:58:00,47.0,47.0,30.15,ENE,63,0.0,51.0,100,6.57,,,0.00,VWS V13.01,2013-01-12 17:58:00,
2013-01-12 13:03:00,47.0,47.0,30.16,ENE,63,0.0,51.0,100,6.57,,,0.00,VWS V13.01,2013-01-12 18:03:00,
2013-01-12 13:08:00,47.0,47.0,30.16,NNW,345,0.0,51.0,100,6.57,,,0.00,VWS V13.01,2013-01-12 18:08:00,
2013-01-12 13:13:00,47.1,47.1,30.17,North,1,0.0,51.0,100,6.57,,,0.00,VWS V13.01,2013-01-12 18:13:00,
2013-01-12 13:18:00,47.0,47.0,30.17,North,1,0.0,51.0,100,6.57,,,0.00,VWS V13.01,2013-01-12 18:18:00,
2013-01-12 13:23:00,47.0,47.0,30.17,NNW,340,0.6,51.0,100,6.57,,,0.00,VWS V13.01,2013-01-12 18:23:00,
2013-01-12 13:28:00,47.1,47.1,30.17,NNE,15,0.0,51.0,100,6.57,,,0.00,VWS V13.01,2013-01-12 18:28:00,
2013-01-12 13:33:00,46.9,46.9,30.17,NNW,345,2.9,51.0,100,6.57,,,0.00,VWS V13.01,2013-01-12 18:33:00,
2013-01-12 13:38:00,46.9,46.9,30.18,North,8,1.1,51.0,100,6.57,,,0.00,VWS V13.01,2013-01-12 18:38:00,
2013-01-12 13:43:00,47.1,47.1,30.18,North,8,0.0,51.0,100,6.57,,,0.00,VWS V13.01,2013-01-12 18:43:00,
2013-01-12 13:48:00,47.3,47.3,30.18,North,8,0.0,51.0,100,6.57,,,0.00,VWS V13.01,2013-01-12 18:48:00,
2013-01-12 13:53:00,47.3,47.3,30.17,NNE,32,0.0,51.0,100,6.57,,,0.00,VWS V13.01,2013-01-12 18:53:00,
2013-01-12 13:58:00,47.4,47.4,30.17,NNE,32,0.0,51.0,100,6.57,,,0.00,VWS V13.01,2013-01-12 18:58:00,
2013-01-12 14:03:00,47.6,47.6,30.17,NNE,32,0.0,51.0,100,6.57,,,0.00,VWS V13.01,2013-01-12 19:03:00,
2013-01-12 14:08:00,47.5,47.5,30.17,NNE,32,0.0,51.0,100,6.57,,,0.00,VWS V13.01,2013-01-12 19:08:00,
2013-01-12 14:13:00,47.5,47.5,30.16,NNE,22,0.0,51.0,100,6.57,,,0.00,VWS V13.01,2013-01-12 19:13:00,
2013-01-12 14:18:00,47.5,47.5,30.16,NE,39,0.0,51.0,100,6.57,,,0.00,VWS V13.01,2013-01-12 19:18:00,
2013-01-12 14:23:00,47.5,47.5,30.16,North,11,0.0,51.0,100,6.57,,,0.00,VWS V13.01,2013-01-12 19:23:00,
2013-01-12 14:28:00,47.5,47.5,30.16,North,11,0.0,51.0,100,6.57,,,0.00,VWS V13.01,2013-01-12 19:28:00,
2013-01-12 14:33:00,47.5,47.5,30.17,North,11,0.0,51.0,100,6.57,,,0.00,VWS V13.01,2013-01-12 19:33:00,
2013-01-12 14:38:00,47.4,47.4,30.16,North,11,0.0,51.0,100,6.57,,,0.00,VWS V13.01,2013-01-12 19:38:00,
2013-01-12 14:43:00,47.4,47.4,30.16,North,11,0.0,51.0,100,6.57,,,0.00,VWS V13.01,2013-01-12 19:43:00,
2013-01-12 14:48:00,47.2,47.2,30.16,North,11,0.0,51.0,100,6.57,,,0.00,VWS V13.01,2013-01-12 19:48:00,
2013-01-12 14:53:00,47.4,47.4,30.17,North,11,0.0,51.0,100,6.57,,,0.00,VWS V13.01,2013-01-12 19:53:00,
2013-01-12 14:58:00,47.2,47.2,30.16,North,11,0.0,51.0,100,6.57,,,0.00,VWS V13.01,2013-01-12 19:58:00,
2013-01-12 15:03:00,47.0,47.0,30.16,North,11,0.0,51.0,100,6.57,,,0.00,VWS V13.01,2013-01-12 20:03:00,
2013-01-12 15:08:00,47.2,47.2,30.16,North,11,0.0,51.0,100,6.57,,,0.00,VWS V13.01,2013-01-12 20:08:00,
2013-01-12 15:13:00,47.1,47.1,30.15,North,11,0.0,51.0,100,6.57,,,0.00,VWS V13.01,2013-01-12 20:13:00,
2013-01-12 15:18:00,47.1,47.1,30.15,ENE,63,0.0,51.0,100,6.57,,,0.00,VWS V13.01,2013-01-12 20:18:00,
2013-01-12 15:23:00,46.9,46.9,30.15,ENE,63,0.0,51.0,100,6.57,,,0.00,VWS V13.01,2013-01-12 20:23:00,
2013-01-12 15:28:00,47.0,47.0,30.15,ENE,63,0.0,51.0,100,6.57,,,0.00,VWS V13.01,2013-01-12 20:28:00,
2013-01-12 15:33:00,47.0,47.0,30.15,ENE,63,0.0,51.0,100,6.57,,,0.00,VWS V13.01,2013-01-12 20:33:00,
2013-01-12 15:38:00,47.2,47.2,30.16,ENE,63,0.0,51.0,100,6.57,,,0.00,VWS V13.01,2013-01-12 20:38:00,
2013-01-12 15:43:00,47.0,47.0,30.16,ENE,63,0.0,51.0,100,6.57,,,0.00,VWS V13.01,2013-01-12 20:43:00,
2013-01-12 15:48:00,47.2,47.2,30.16,ENE,63,0.0,51.0,100,6.57,,,0.00,VWS V13.01,2013-01-12 20:48:00,
2013-01-12 15:53:00,47.1,47.1,30.16,ENE,63,0.0,51.0,100,6.57,,,0.00,VWS V13.01,2013-01-12 20:53:00,
2013-01-12 15:58:00,47.1,47.1,30.17,ENE,63,0.0,51.0,100,6.57,,,0.00,VWS V13.01,2013-01-12 20:58:00,
2013-01-12 16:03:00,47.0,47.0,30.16,ENE,63,0.0,51.0,100,6.57,,,0.00,VWS V13.01,2013-01-12 21:03:00,
2013-01-12 16:08:00,46.8,46.8,30.17,ENE,63,0.0,51.0,100,6.57,,,0.00,VWS V13.01,2013-01-12 21:08:00,
2013-01-12 16:13:00,46.7,46.7,30.17,ENE,63,0.0,51.0,100,6.57,,,0.00,VWS V13.01,2013-01-12 21:13:00,
2013-01-12 16:18:00,46.7,46.7,30.17,ENE,63,0.0,51.0,100,6.57,,,0.00,VWS V13.01,2013-01-12 21:18:00,
2013-01-12 16:23:00,46.7,46.7,30.17,ENE,63,0.0,51.0,100,6.57,,,0.00,VWS V13.01,2013-01-12 21:23:00,
2013-01-12 16:28:00,46.6,46.6,30.17,ENE,63,0.0,51.0,100,6.57,,,0.00,VWS V13.01,2013-01-12 21:28:00,
2013-01-12 16:33:00,46.4,46.4,30.18,ENE,63,0.0,51.0,100,6.57,,,0.00,VWS V13.01,2013-01-12 21:33:00,
2013-01-12 16:38:00,46.2,46.2,30.17,NNE,14,0.0,51.0,100,6.57,,,0.00,VWS V13.01,2013-01-12 21:38:00,
2013-01-12 16:43:00,46.4,46.4,30.18,NE,52,0.0,51.0,100,6.57,,,0.00,VWS V13.01,2013-01-12 21:43:00,
2013-01-12 16:48:00,46.3,46.3,30.18,NE,42,0.0,51.0,100,6.57,,,0.00,VWS V13.01,2013-01-12 21:48:00,
2013-01-12 16:53:00,46.3,46.3,30.18,NE,42,0.0,51.0,100,6.57,,,0.00,VWS V13.01,2013-01-12 21:53:00,
2013-01-12 16:58:00,46.4,46.4,30.18,NE,42,0.0,51.0,100,6.57,,,0.00,VWS V13.01,2013-01-12 21:58:00,
2013-01-12 17:03:00,46.2,46.2,30.18,East,83,0.0,51.0,100,6.57,,,0.00,VWS V13.01,2013-01-12 22:03:00,
2013-01-12 17:08:00,46.0,46.0,30.18,ENE,73,0.0,51.0,100,6.57,,,0.00,VWS V13.01,2013-01-12 22:08:00,
2013-01-12 17:13:00,45.9,45.9,30.18,ENE,73,0.0,51.0,100,6.57,,,0.00,VWS V13.01,2013-01-12 22:13:00,
2013-01-12 17:18:00,46.0,46.0,30.18,ENE,73,0.0,51.0,100,6.57,,,0.00,VWS V13.01,2013-01-12 22:18:00,
2013-01-12 17:23:00,46.1,46.1,30.18,ENE,73,0.0,51.0,100,6.57,,,0.00,VWS V13.01,2013-01-12 22:23:00,
2013-01-12 17:28:00,46.1,46.1,30.18,ENE,73,0.0,51.0,100,6.57,,,0.00,VWS V13.01,2013-01-12 22:28:00,
2013-01-12 17:33:00,46.2,46.2,30.19,ENE,73,0.0,51.0,100,6.57,,,0.00,VWS V13.01,2013-01-12 22:33:00,
2013-01-12 17:38:00,46.1,46.1,30.19,ENE,73,0.0,51.0,100,6.57,,,0.00,VWS V13.01,2013-01-12 22:38:00,
2013-01-12 17:43:00,46.2,46.2,30.19,ENE,73,0.0,51.0,100,6.57,,,0.00,VWS V13.01,2013-01-12 22:43:00,
2013-01-12 17:48:00,46.1,46.1,30.19,ENE,73,0.0,51.0,100,6.57,,,0.00,VWS V13.01,2013-01-12 22:48:00,
2013-01-12 17:53:00,45.9,45.9,30.20,East,98,0.0,51.0,100,6.57,,,0.00,VWS V13.01,2013-01-12 22:53:00,
2013-01-12 17:58:00,45.9,45.9,30.20,ESE,110,3.6,51.0,100,6.57,,,0.00,VWS V13.01,2013-01-12 22:58:00,
2013-01-12 18:03:00,46.1,46.1,30.20,NE,38,0.0,51.0,100,6.57,,,0.00,VWS V13.01,2013-01-12 23:03:00,
2013-01-12 18:08:00,46.0,46.0,30.20,NE,46,0.0,51.0,100,6.57,,,0.00,VWS V13.01,2013-01-12 23:08:00,
2013-01-12 18:13:00,45.9,45.9,30.20,NE,46,0.0,51.0,100,6.57,,,0.00,VWS V13.01,2013-01-12 23:13:00,
2013-01-12 18:18:00,45.8,45.8,30.20,NE,46,0.0,51.0,100,6.57,,,0.00,VWS V13.01,2013-01-12 23:18:00,
2013-01-12 18:23:00,45.9,45.9,30.20,NE,41,0.0,51.0,100,6.57,,,0.00,VWS V13.01,2013-01-12 23:23:00,
2013-01-12 18:28:00,45.8,45.8,30.20,NE,41,0.0,51.0,100,6.57,,,0.00,VWS V13.01,2013-01-12 23:28:00,
2013-01-12 18:33:00,45.9,45.9,30.20,NE,41,0.0,51.0,100,6.57,,,0.00,VWS V13.01,2013-01-12 23:33:00,
2013-01-12 18:38:00,46.0,46.0,30.20,NE,41,0.0,51.0,100,6.57,,,0.00,VWS V13.01,2013-01-12 23:38:00,
2013-01-12 18:43:00,45.8,45.8,30.20,NE,41,0.0,51.0,100,6.57,,,0.00,VWS V13.01,2013-01-12 23:43:00,
2013-01-12 18:48:00,45.8,45.8,30.20,NE,41,0.0,51.0,100,6.57,,,0.00,VWS V13.01,2013-01-12 23:48:00,
2013-01-12 18:53:00,45.5,45.5,30.19,NE,41,0.0,51.0,100,6.57,,,0.00,VWS V13.01,2013-01-12 23:53:00,
2013-01-12 18:58:00,45.4,45.4,30.19,NE,41,0.0,51.0,100,6.57,,,0.00,VWS V13.01,2013-01-12 23:58:00,
2013-01-12 19:03:00,45.3,45.3,30.18,NE,41,0.0,51.0,100,6.57,,,0.00,VWS V13.01,2013-01-13 00:03:00,
2013-01-12 19:08:00,45.2,45.2,30.18,NE,41,0.0,51.0,100,6.57,,,0.00,VWS V13.01,2013-01-13 00:08:00,
2013-01-12 19:13:00,45.0,45.0,30.18,NE,41,0.0,51.0,100,6.57,,,0.00,VWS V13.01,2013-01-13 00:13:00,
2013-01-12 19:18:00,45.3,45.3,30.19,NE,41,0.0,51.0,100,6.57,,,0.00,VWS V13.01,2013-01-13 00:18:00,
2013-01-12 19:23:00,45.3,45.3,30.19,NE,41,0.0,51.0,100,6.57,,,0.00,VWS V13.01,2013-01-13 00:23:00,
2013-01-12 19:28:00,45.2,45.2,30.19,NE,41,0.0,51.0,100,6.57,,,0.00,VWS V13.01,2013-01-13 00:28:00,
2013-01-12 19:33:00,45.3,45.3,30.18,NE,41,0.0,51.0,100,6.57,,,0.00,VWS V13.01,2013-01-13 00:33:00,
2013-01-12 19:38:00,45.0,45.0,30.18,NE,41,0.0,51.0,100,6.57,,,0.00,VWS V13.01,2013-01-13 00:38:00,
2013-01-12 19:43:00,45.1,45.1,30.18,NE,41,0.0,51.0,100,6.57,,,0.00,VWS V13.01,2013-01-13 00:43:00,
2013-01-12 19:48:00,45.0,45.0,30.19,NE,41,0.0,51.0,100,6.57,,,0.00,VWS V13.01,2013-01-13 00:48:00,
2013-01-12 19:53:00,45.2,45.2,30.19,NE,41,0.0,51.0,100,6.57,,,0.00,VWS V13.01,2013-01-13 00:53:00,
2013-01-12 19:58:00,45.4,45.4,30.19,NE,41,0.0,51.0,100,6.57,,,0.00,VWS V13.01,2013-01-13 00:58:00,
2013-01-12 20:03:00,45.3,45.3,30.19,NE,41,0.0,51.0,100,6.57,,,0.00,VWS V13.01,2013-01-13 01:03:00,
2013-01-12 20:08:00,45.3,45.3,30.19,NE,41,0.0,51.0,100,6.57,,,0.00,VWS V13.01,2013-01-13 01:08:00,
2013-01-12 20:13:00,45.2,45.2,30.19,NE,41,0.0,51.0,100,6.57,,,0.00,VWS V13.01,2013-01-13 01:13:00,
2013-01-12 20:18:00,45.0,45.0,30.19,NE,41,0.0,51.0,100,6.57,,,0.00,VWS V13.01,2013-01-13 01:18:00,
2013-01-12 20:23:00,45.1,45.1,30.19,NE,41,0.0,51.0,100,6.57,,,0.00,VWS V13.01,2013-01-13 01:23:00,
2013-01-12 20:28:00,45.1,45.1,30.19,NE,41,0.0,51.0,100,6.57,,,0.00,VWS V13.01,2013-01-13 01:28:00,
2013-01-12 20:33:00,45.1,45.1,30.18,NE,41,0.0,51.0,100,6.57,,,0.00,VWS V13.01,2013-01-13 01:33:00,
2013-01-12 20:38:00,45.0,45.0,30.18,NE,41,0.0,51.0,100,6.57,,,0.00,VWS V13.01,2013-01-13 01:38:00,
2013-01-12 20:43:00,45.2,45.2,30.18,NE,41,0.0,51.0,100,6.57,,,0.00,VWS V13.01,2013-01-13 01:43:00,
2013-01-12 20:48:00,45.2,45.2,30.18,NE,41,0.0,51.0,100,6.57,,,0.00,VWS V13.01,2013-01-13 01:48:00,
2013-01-12 20:53:00,45.1,45.1,30.18,NE,41,0.0,51.0,100,6.57,,,0.00,VWS V13.01,2013-01-13 01:53:00,
2013-01-12 20:58:00,45.3,45.3,30.18,NE,41,0.0,51.0,100,6.57,,,0.00,VWS V13.01,2013-01-13 01:58:00,
2013-01-12 21:03:00,45.1,45.1,30.18,NE,41,0.0,51.0,100,6.57,,,0.00,VWS V13.01,2013-01-13 02:03:00,
2013-01-12 21:08:00,45.1,45.1,30.17,NE,41,0.0,51.0,100,6.57,,,0.00,VWS V13.01,2013-01-13 02:08:00,
2013-01-12 21:13:00,44.9,44.9,30.18,NE,41,0.0,51.0,100,6.57,,,0.00,VWS V13.01,2013-01-13 02:13:00,
2013-01-12 22:15:00,44.7,44.7,30.16,NE,41,0.0,51.0,100,6.57,,,0.00,VWS V13.01,2013-01-13 03:15:00,
2013-01-12 22:20:00,44.7,44.7,30.16,NE,41,0.0,51.0,100,6.57,,,0.00,VWS V13.01,2013-01-13 03:20:00,
2013-01-12 22:25:00,44.7,44.7,30.16,NE,41,0.0,51.0,100,6.57,,,0.00,VWS V13.01,2013-01-13 03:25:00,
2013-01-12 22:30:00,44.7,44.7,30.16,NE,41,0.0,51.0,100,6.57,,,0.00,VWS V13.01,2013-01-13 03:30:00,
2013-01-12 22:35:00,44.6,44.6,30.16,NE,41,0.0,51.0,100,6.57,,,0.00,VWS V13.01,2013-01-13 03:35:00,
2013-01-12 22:40:00,44.8,44.8,30.16,NE,41,0.0,51.0,100,6.57,,,0.00,VWS V13.01,2013-01-13 03:40:00,
2013-01-12 22:45:00,44.8,44.8,30.16,NE,41,0.0,51.0,100,6.57,,,0.00,VWS V13.01,2013-01-13 03:45:00,
2013-01-12 22:50:00,44.5,44.5,30.16,NE,41,0.0,51.0,100,6.57,,,0.00,VWS V13.01,2013-01-13 03:50:00,
2013-01-12 22:55:00,44.7,44.7,30.16,NE,41,0.0,51.0,100,6.57,,,0.00,VWS V13.01,2013-01-13 03:55:00,
2013-01-12 23:00:00,44.7,44.7,30.17,NE,41,0.0,51.0,100,6.57,,,0.00,VWS V13.01,2013-01-13 04:00:00,
2013-01-12 23:05:00,44.7,44.7,30.17,NE,41,0.0,51.0,100,6.57,,,0.00,VWS V13.01,2013-01-13 04:05:00,
2013-01-12 23:10:00,44.4,44.4,30.18,NE,41,0.0,51.0,100,6.57,,,0.00,VWS V13.01,2013-01-13 04:10:00,
2013-01-12 23:15:00,44.6,44.6,30.18,NE,41,0.0,51.0,100,6.57,,,0.00,VWS V13.01,2013-01-13 04:15:00,
2013-01-12 23:20:00,44.7,44.7,30.18,NE,41,0.0,51.0,100,6.57,,,0.00,VWS V13.01,2013-01-13 04:20:00,
2013-01-12 23:25:00,44.5,44.5,30.18,NE,41,0.0,51.0,100,6.57,,,0.00,VWS V13.01,2013-01-13 04:25:00,
2013-01-12 23:30:00,44.6,44.6,30.18,NE,41,0.0,51.0,100,6.57,,,0.00,VWS V13.01,2013-01-13 04:30:00,
2013-01-12 23:35:00,44.6,44.6,30.18,NE,41,0.0,51.0,100,6.57,,,0.00,VWS V13.01,2013-01-13 04:35:00,
2013-01-12 23:40:00,44.6,44.6,30.17,NE,41,0.0,51.0,100,6.57,,,0.00,VWS V13.01,2013-01-13 04:40:00,
2013-01-12 23:46:00,44.7,44.7,30.17,NE,41,0.0,51.0,100,6.57,,,0.00,VWS V13.01,2013-01-13 04:46:00,
2013-01-12 23:51:00,44.4,44.4,30.17,NE,41,0.0,51.0,100,6.57,,,0.00,VWS V13.01,2013-01-13 04:51:00,
2013-01-12 23:56:00,44.5,44.5,30.17,NE,41,0.0,51.0,100,6.57,,,0.00,VWS V13.01,2013-01-13 04:56:00,